Assumption, IL (62510)

8:09 PM CDT on July 22, 2017 (GMT -0500)
208 Vine Street | | Change Station

Elev 705 ft 39.39 °N, 89.08 °W | Updated 15 minutes ago

Mostly Cloudy
Mostly Cloudy
88.1 °F
Feels Like 102 °F
N
0.0
Wind Variable Wind from East

Today
High -- | Low -- °F
--% Chance of Precip.
Yesterday
High -- | Low -- °F
Precip. -- in
Pressure 29.78 in
Visibility 10.0 miles
Clouds Mostly Cloudy 6500 ft
Mostly Cloudy 8000 ft
Heat Index 102 °F
Dew Point 78 °F
Humidity 73%
Rainfall 0.02 in
Snow Depth Not available.
5:47 AM 8:17 PM
Waning Crescent, 0% visible
METAR KTAZ 230055Z AUTO 03005KT 10SM BKN065 BKN080 30/25 A2978 RMK AO2 T03020246
Pressure 29.78 in
Visibility 10.0 miles
Clouds Mostly Cloudy 6500 ft
Mostly Cloudy 8000 ft
Heat Index 102 °F
Dew Point 78 °F
Humidity 73%
Rainfall 0.02 in
Snow Depth Not available.
5:47 AM 8:17 PM
Waning Crescent, 0% visible
METAR KTAZ 230055Z AUTO 03005KT 10SM BKN065 BKN080 30/25 A2978 RMK AO2 T03020246

Get Severe Weather Alerts

Thanks for signing up!

Be on the lookout for a verification email in your inbox.

You'll start receiving the daily forecast at 6 AM.

×

10-Day Weather Forecast

Almanac

Astronomy

Jul. 22, 2017 Rise Set
Actual Time
Civil Twilight
Nautical Twilight
Astronomical Twilight
Moon
Length of Visible Light
Length of Day
Tomorrow will be .
, % of the Moon is Illuminated

Today's Extremes

State Highs State Lows

Community

WunderPhotos

Category 6

Welcome to Category 6. This is the collective home for Weather Underground's featured writeups by Dr. Jeff Masters (right), Bob Henson (left), Chris Burt, and other regular contributors.

Nearby

Air Quality

  Air Quality AQ Index Pollutant
Not available.

Snow Depth

Station Depth Elevation

Earthquake Activity

City Distance Mag. Time & Date
Minimum magnitude displayed is 2.5.

Coastal Water Temperatures

Place Temperature

Stations

Nearby Weather Stations

Station Location Temp. Windchill Dew Point Humidity Wind Precip. Elev Updated Type
                   

Watches & Warnings

There are currently no watches in effect.